sensor_id;sensor_type;location;lat;lon;timestamp;P1;P2;P0
76784;PMS7003;66893;44.316;0.092;2023-04-06T00:01:17;9.25;9.25;7.25
76784;PMS7003;66893;44.316;0.092;2023-04-06T00:03:42;6.25;6.25;5.00
76784;PMS7003;66893;44.316;0.092;2023-04-06T00:06:08;10.00;7.25;5.75
76784;PMS7003;66893;44.316;0.092;2023-04-06T00:08:33;11.25;7.50;5.00
76784;PMS7003;66893;44.316;0.092;2023-04-06T00:10:59;9.00;7.25;6.00
76784;PMS7003;66893;44.316;0.092;2023-04-06T00:13:24;8.00;8.00;6.00
76784;PMS7003;66893;44.316;0.092;2023-04-06T00:15:50;8.50;8.50;7.00
76784;PMS7003;66893;44.316;0.092;2023-04-06T00:18:15;7.75;5.75;4.50
76784;PMS7003;66893;44.316;0.092;2023-04-06T00:20:41;5.50;5.50;5.00
76784;PMS7003;66893;44.316;0.092;2023-04-06T00:23:06;8.50;8.50;6.00
76784;PMS7003;66893;44.316;0.092;2023-04-06T00:25:32;5.00;5.00;5.00
76784;PMS7003;66893;44.316;0.092;2023-04-06T00:27:57;8.25;8.25;6.00
76784;PMS7003;66893;44.316;0.092;2023-04-06T00:30:22;9.00;7.25;4.75
76784;PMS7003;66893;44.316;0.092;2023-04-06T00:32:48;8.50;7.25;5.50
76784;PMS7003;66893;44.316;0.092;2023-04-06T00:35:13;11.50;9.75;6.50
76784;PMS7003;66893;44.316;0.092;2023-04-06T00:37:40;9.75;8.50;6.00
76784;PMS7003;66893;44.316;0.092;2023-04-06T00:40:06;8.25;7.25;5.75
76784;PMS7003;66893;44.316;0.092;2023-04-06T00:42:32;10.50;9.00;7.25
76784;PMS7003;66893;44.316;0.092;2023-04-06T00:44:58;13.75;10.00;8.25
76784;PMS7003;66893;44.316;0.092;2023-04-06T00:47:25;7.50;7.50;6.00
76784;PMS7003;66893;44.316;0.092;2023-04-06T00:49:51;8.50;6.25;5.25
76784;PMS7003;66893;44.316;0.092;2023-04-06T00:52:18;8.00;8.00;6.00
76784;PMS7003;66893;44.316;0.092;2023-04-06T00:54:44;8.75;7.25;5.50
76784;PMS7003;66893;44.316;0.092;2023-04-06T00:57:13;7.25;6.25;6.00
76784;PMS7003;66893;44.316;0.092;2023-04-06T00:59:39;8.25;8.25;6.00
76784;PMS7003;66893;44.316;0.092;2023-04-06T01:02:05;7.00;7.00;6.00
76784;PMS7003;66893;44.316;0.092;2023-04-06T01:04:31;6.00;6.00;4.50
76784;PMS7003;66893;44.316;0.092;2023-04-06T01:06:57;8.00;6.75;5.00
76784;PMS7003;66893;44.316;0.092;2023-04-06T01:09:23;6.25;5.25;4.25
76784;PMS7003;66893;44.316;0.092;2023-04-06T01:11:48;7.50;5.50;4.50
76784;PMS7003;66893;44.316;0.092;2023-04-06T01:14:14;5.75;5.00;4.00
76784;PMS7003;66893;44.316;0.092;2023-04-06T01:16:40;5.25;4.00;4.00
76784;PMS7003;66893;44.316;0.092;2023-04-06T01:19:10;5.00;5.00;4.00
76784;PMS7003;66893;44.316;0.092;2023-04-06T01:21:37;7.00;6.00;4.25
76784;PMS7003;66893;44.316;0.092;2023-04-06T01:24:02;6.25;6.25;5.25
76784;PMS7003;66893;44.316;0.092;2023-04-06T01:26:29;4.00;4.00;3.00
76784;PMS7003;66893;44.316;0.092;2023-04-06T01:28:55;2.00;2.00;1.00
76784;PMS7003;66893;44.316;0.092;2023-04-06T01:31:21;4.50;4.50;3.25
76784;PMS7003;66893;44.316;0.092;2023-04-06T01:33:47;4.75;4.75;3.75
76784;PMS7003;66893;44.316;0.092;2023-04-06T01:36:13;5.75;5.00;4.00
76784;PMS7003;66893;44.316;0.092;2023-04-06T01:38:40;9.25;7.00;5.00
76784;PMS7003;66893;44.316;0.092;2023-04-06T01:41:06;6.50;6.25;5.00
76784;PMS7003;66893;44.316;0.092;2023-04-06T01:43:32;7.00;6.25;5.00
76784;PMS7003;66893;44.316;0.092;2023-04-06T01:45:57;5.00;5.00;4.00
76784;PMS7003;66893;44.316;0.092;2023-04-06T01:48:23;6.25;6.25;5.25
76784;PMS7003;66893;44.316;0.092;2023-04-06T01:50:48;7.50;5.25;4.75
76784;PMS7003;66893;44.316;0.092;2023-04-06T01:53:14;7.50;6.25;4.75
76784;PMS7003;66893;44.316;0.092;2023-04-06T01:55:40;6.00;5.75;4.00
76784;PMS7003;66893;44.316;0.092;2023-04-06T01:58:06;10.00;8.25;6.25
76784;PMS7003;66893;44.316;0.092;2023-04-06T02:00:31;6.25;6.25;5.00
76784;PMS7003;66893;44.316;0.092;2023-04-06T02:02:57;4.75;4.50;3.00
76784;PMS7003;66893;44.316;0.092;2023-04-06T02:05:22;7.50;7.00;5.50
76784;PMS7003;66893;44.316;0.092;2023-04-06T02:07:48;7.00;7.00;4.50
76784;PMS7003;66893;44.316;0.092;2023-04-06T02:10:14;9.00;8.25;6.25
76784;PMS7003;66893;44.316;0.092;2023-04-06T02:12:40;6.75;6.75;4.50
76784;PMS7003;66893;44.316;0.092;2023-04-06T02:15:05;5.00;5.00;5.00
76784;PMS7003;66893;44.316;0.092;2023-04-06T02:17:31;4.00;4.00;3.00
76784;PMS7003;66893;44.316;0.092;2023-04-06T02:19:56;9.50;8.25;7.00
76784;PMS7003;66893;44.316;0.092;2023-04-06T02:22:22;6.25;6.25;5.00
76784;PMS7003;66893;44.316;0.092;2023-04-06T02:24:47;8.75;8.75;6.50
76784;PMS7003;66893;44.316;0.092;2023-04-06T02:27:16;6.25;5.75;5.00
76784;PMS7003;66893;44.316;0.092;2023-04-06T02:29:41;7.25;7.25;5.00
76784;PMS7003;66893;44.316;0.092;2023-04-06T02:32:07;5.00;5.00;4.00
76784;PMS7003;66893;44.316;0.092;2023-04-06T02:34:32;9.25;7.50;6.00
76784;PMS7003;66893;44.316;0.092;2023-04-06T02:36:58;6.50;6.50;4.25
76784;PMS7003;66893;44.316;0.092;2023-04-06T02:39:23;4.00;4.00;3.75
76784;PMS7003;66893;44.316;0.092;2023-04-06T02:41:49;5.75;5.00;3.75
76784;PMS7003;66893;44.316;0.092;2023-04-06T02:44:14;5.75;4.00;3.25
76784;PMS7003;66893;44.316;0.092;2023-04-06T02:46:40;6.75;5.50;4.00
76784;PMS7003;66893;44.316;0.092;2023-04-06T02:49:05;5.50;4.50;3.50
76784;PMS7003;66893;44.316;0.092;2023-04-06T02:51:31;5.50;5.50;3.50
76784;PMS7003;66893;44.316;0.092;2023-04-06T02:53:57;5.25;5.25;5.00
76784;PMS7003;66893;44.316;0.092;2023-04-06T02:56:23;9.75;5.50;4.00
76784;PMS7003;66893;44.316;0.092;2023-04-06T02:58:48;5.00;5.00;3.25
76784;PMS7003;66893;44.316;0.092;2023-04-06T03:01:13;5.00;5.00;4.75
76784;PMS7003;66893;44.316;0.092;2023-04-06T03:03:39;5.25;5.25;4.25
76784;PMS7003;66893;44.316;0.092;2023-04-06T03:06:05;5.00;5.00;3.75
76784;PMS7003;66893;44.316;0.092;2023-04-06T03:08:32;8.75;5.00;3.50
76784;PMS7003;66893;44.316;0.092;2023-04-06T03:10:57;5.00;5.00;4.00
76784;PMS7003;66893;44.316;0.092;2023-04-06T03:13:23;5.50;5.50;3.75
76784;PMS7003;66893;44.316;0.092;2023-04-06T03:15:48;9.00;7.75;5.00
76784;PMS7003;66893;44.316;0.092;2023-04-06T03:18:14;6.50;4.75;4.00
76784;PMS7003;66893;44.316;0.092;2023-04-06T03:20:40;6.50;4.75;4.00
76784;PMS7003;66893;44.316;0.092;2023-04-06T03:23:05;5.25;5.25;4.00
76784;PMS7003;66893;44.316;0.092;2023-04-06T03:25:31;8.00;6.00;4.25
76784;PMS7003;66893;44.316;0.092;2023-04-06T03:27:56;5.00;5.00;4.50
76784;PMS7003;66893;44.316;0.092;2023-04-06T03:30:22;4.75;4.75;3.75
76784;PMS7003;66893;44.316;0.092;2023-04-06T03:32:47;4.00;4.00;4.00
76784;PMS7003;66893;44.316;0.092;2023-04-06T03:35:13;5.25;5.25;4.00
76784;PMS7003;66893;44.316;0.092;2023-04-06T03:37:38;6.00;4.25;3.75
76784;PMS7003;66893;44.316;0.092;2023-04-06T03:40:04;6.00;5.00;4.00
76784;PMS7003;66893;44.316;0.092;2023-04-06T03:42:30;8.00;5.25;3.50
76784;PMS7003;66893;44.316;0.092;2023-04-06T03:44:57;5.25;5.25;4.00
76784;PMS7003;66893;44.316;0.092;2023-04-06T03:47:23;4.75;4.75;4.25
76784;PMS7003;66893;44.316;0.092;2023-04-06T03:49:48;5.00;5.00;3.25
76784;PMS7003;66893;44.316;0.092;2023-04-06T03:52:14;4.25;4.25;3.25
76784;PMS7003;66893;44.316;0.092;2023-04-06T03:54:39;3.75;3.75;3.00
76784;PMS7003;66893;44.316;0.092;2023-04-06T03:57:05;1.25;1.25;1.25
76784;PMS7003;66893;44.316;0.092;2023-04-06T03:59:30;4.50;4.50;3.75
76784;PMS7003;66893;44.316;0.092;2023-04-06T04:01:56;5.00;5.00;4.25
76784;PMS7003;66893;44.316;0.092;2023-04-06T04:04:21;6.50;6.50;4.75
76784;PMS7003;66893;44.316;0.092;2023-04-06T04:06:46;5.50;5.50;4.00
76784;PMS7003;66893;44.316;0.092;2023-04-06T04:09:12;4.25;4.25;3.75
76784;PMS7003;66893;44.316;0.092;2023-04-06T04:11:37;4.50;3.50;2.50
76784;PMS7003;66893;44.316;0.092;2023-04-06T04:14:03;5.50;5.50;4.75
76784;PMS7003;66893;44.316;0.092;2023-04-06T04:16:28;5.50;5.50;4.25
76784;PMS7003;66893;44.316;0.092;2023-04-06T04:18:54;7.00;5.25;4.00
76784;PMS7003;66893;44.316;0.092;2023-04-06T04:21:20;5.00;5.00;3.50
76784;PMS7003;66893;44.316;0.092;2023-04-06T04:23:45;5.50;5.25;4.00
76784;PMS7003;66893;44.316;0.092;2023-04-06T04:26:11;5.00;5.00;4.00
76784;PMS7003;66893;44.316;0.092;2023-04-06T04:28:37;6.00;4.75;4.00
76784;PMS7003;66893;44.316;0.092;2023-04-06T04:31:02;4.75;4.75;3.50
76784;PMS7003;66893;44.316;0.092;2023-04-06T04:33:27;5.00;4.00;3.25
76784;PMS7003;66893;44.316;0.092;2023-04-06T04:35:53;7.00;5.50;3.75
76784;PMS7003;66893;44.316;0.092;2023-04-06T04:38:18;6.25;5.25;4.00
76784;PMS7003;66893;44.316;0.092;2023-04-06T04:40:44;6.25;5.50;5.25
76784;PMS7003;66893;44.316;0.092;2023-04-06T04:43:10;7.50;5.50;4.25
76784;PMS7003;66893;44.316;0.092;2023-04-06T04:45:35;9.00;5.25;3.75
76784;PMS7003;66893;44.316;0.092;2023-04-06T04:48:01;7.75;6.75;5.00
76784;PMS7003;66893;44.316;0.092;2023-04-06T04:50:26;4.50;4.50;3.25
76784;PMS7003;66893;44.316;0.092;2023-04-06T04:52:52;7.50;6.75;5.50
76784;PMS7003;66893;44.316;0.092;2023-04-06T04:55:17;5.50;5.50;4.00
76784;PMS7003;66893;44.316;0.092;2023-04-06T04:57:43;6.50;4.75;3.75
76784;PMS7003;66893;44.316;0.092;2023-04-06T05:00:09;6.25;6.25;4.00
76784;PMS7003;66893;44.316;0.092;2023-04-06T05:02:34;5.25;5.25;3.50
76784;PMS7003;66893;44.316;0.092;2023-04-06T05:05:00;5.00;5.00;3.75
76784;PMS7003;66893;44.316;0.092;2023-04-06T05:07:26;6.75;5.25;4.25
76784;PMS7003;66893;44.316;0.092;2023-04-06T05:09:51;9.50;7.75;4.50
76784;PMS7003;66893;44.316;0.092;2023-04-06T05:12:18;7.25;5.50;5.25
76784;PMS7003;66893;44.316;0.092;2023-04-06T05:14:44;7.75;7.75;4.75
76784;PMS7003;66893;44.316;0.092;2023-04-06T05:17:10;7.50;5.75;4.50
76784;PMS7003;66893;44.316;0.092;2023-04-06T05:19:35;9.50;6.75;4.75
76784;PMS7003;66893;44.316;0.092;2023-04-06T05:22:01;8.75;8.75;6.25
76784;PMS7003;66893;44.316;0.092;2023-04-06T05:24:26;8.00;8.00;6.25
76784;PMS7003;66893;44.316;0.092;2023-04-06T05:26:52;7.75;6.50;5.50
76784;PMS7003;66893;44.316;0.092;2023-04-06T05:29:18;8.75;8.50;6.50
76784;PMS7003;66893;44.316;0.092;2023-04-06T05:31:44;9.00;7.00;6.00
76784;PMS7003;66893;44.316;0.092;2023-04-06T05:34:09;7.00;7.00;5.75
76784;PMS7003;66893;44.316;0.092;2023-04-06T05:36:35;7.75;7.75;6.75
76784;PMS7003;66893;44.316;0.092;2023-04-06T05:39:01;7.75;7.50;5.50
76784;PMS7003;66893;44.316;0.092;2023-04-06T05:41:26;6.50;6.50;4.75
76784;PMS7003;66893;44.316;0.092;2023-04-06T05:43:52;7.00;5.75;4.00
76784;PMS7003;66893;44.316;0.092;2023-04-06T05:46:17;4.00;3.75;3.25
76784;PMS7003;66893;44.316;0.092;2023-04-06T05:48:43;8.25;7.25;5.25
76784;PMS7003;66893;44.316;0.092;2023-04-06T05:51:10;7.00;7.00;5.00
76784;PMS7003;66893;44.316;0.092;2023-04-06T05:53:35;8.50;6.50;4.50
76784;PMS7003;66893;44.316;0.092;2023-04-06T05:56:01;7.25;7.25;5.50
76784;PMS7003;66893;44.316;0.092;2023-04-06T05:58:27;12.00;8.00;6.75
76784;PMS7003;66893;44.316;0.092;2023-04-06T06:01:00;6.50;6.50;5.25
76784;PMS7003;66893;44.316;0.092;2023-04-06T06:03:26;8.75;8.00;6.50
76784;PMS7003;66893;44.316;0.092;2023-04-06T06:05:51;9.00;9.00;6.50
76784;PMS7003;66893;44.316;0.092;2023-04-06T06:08:17;9.50;6.50;5.50
76784;PMS7003;66893;44.316;0.092;2023-04-06T06:10:42;8.75;8.00;6.75
76784;PMS7003;66893;44.316;0.092;2023-04-06T06:13:08;7.00;7.00;6.00
76784;PMS7003;66893;44.316;0.092;2023-04-06T06:15:33;7.00;6.75;4.75
76784;PMS7003;66893;44.316;0.092;2023-04-06T06:17:59;8.50;7.25;6.25
76784;PMS7003;66893;44.316;0.092;2023-04-06T06:20:25;7.50;7.50;5.00
76784;PMS7003;66893;44.316;0.092;2023-04-06T06:22:51;9.75;7.50;5.75
76784;PMS7003;66893;44.316;0.092;2023-04-06T06:25:17;9.50;9.00;7.00
76784;PMS7003;66893;44.316;0.092;2023-04-06T06:27:42;7.75;7.75;5.50
76784;PMS7003;66893;44.316;0.092;2023-04-06T06:30:08;9.25;8.00;6.25
76784;PMS7003;66893;44.316;0.092;2023-04-06T06:32:34;6.25;5.00;4.25
76784;PMS7003;66893;44.316;0.092;2023-04-06T06:34:59;8.00;6.75;5.00
76784;PMS7003;66893;44.316;0.092;2023-04-06T06:37:25;7.75;7.75;5.75
76784;PMS7003;66893;44.316;0.092;2023-04-06T06:39:50;6.25;5.25;4.25
76784;PMS7003;66893;44.316;0.092;2023-04-06T06:42:16;8.00;8.00;6.75
76784;PMS7003;66893;44.316;0.092;2023-04-06T06:44:41;8.00;8.00;6.25
76784;PMS7003;66893;44.316;0.092;2023-04-06T06:47:07;10.75;7.50;6.50
76784;PMS7003;66893;44.316;0.092;2023-04-06T06:49:32;5.25;5.25;4.25
76784;PMS7003;66893;44.316;0.092;2023-04-06T06:51:58;6.75;6.75;5.25
76784;PMS7003;66893;44.316;0.092;2023-04-06T06:54:23;8.00;8.00;7.00
76784;PMS7003;66893;44.316;0.092;2023-04-06T06:56:49;6.75;6.75;6.25
76784;PMS7003;66893;44.316;0.092;2023-04-06T06:59:14;7.00;6.50;5.75
76784;PMS7003;66893;44.316;0.092;2023-04-06T07:01:41;12.50;8.75;7.00
76784;PMS7003;66893;44.316;0.092;2023-04-06T07:04:06;9.25;9.25;7.50
76784;PMS7003;66893;44.316;0.092;2023-04-06T07:06:34;12.75;10.25;8.00
76784;PMS7003;66893;44.316;0.092;2023-04-06T07:09:01;9.75;9.50;7.50
76784;PMS7003;66893;44.316;0.092;2023-04-06T07:11:28;8.75;7.50;6.00
76784;PMS7003;66893;44.316;0.092;2023-04-06T07:13:55;10.25;8.50;7.50
76784;PMS7003;66893;44.316;0.092;2023-04-06T07:16:20;9.75;9.75;7.50
76784;PMS7003;66893;44.316;0.092;2023-04-06T07:18:46;11.75;9.00;7.00
76784;PMS7003;66893;44.316;0.092;2023-04-06T07:21:11;9.75;8.25;6.50
76784;PMS7003;66893;44.316;0.092;2023-04-06T07:23:37;8.00;8.00;7.50
76784;PMS7003;66893;44.316;0.092;2023-04-06T07:26:02;8.75;8.75;7.25
76784;PMS7003;66893;44.316;0.092;2023-04-06T07:28:28;7.75;7.50;6.00
76784;PMS7003;66893;44.316;0.092;2023-04-06T07:30:53;13.25;8.50;6.50
76784;PMS7003;66893;44.316;0.092;2023-04-06T07:33:19;9.25;9.00;7.75
76784;PMS7003;66893;44.316;0.092;2023-04-06T07:35:45;9.00;8.75;6.25
76784;PMS7003;66893;44.316;0.092;2023-04-06T07:38:11;12.50;10.50;8.50
76784;PMS7003;66893;44.316;0.092;2023-04-06T07:40:36;12.00;9.75;7.75
76784;PMS7003;66893;44.316;0.092;2023-04-06T07:43:02;8.00;8.00;7.00
76784;PMS7003;66893;44.316;0.092;2023-04-06T07:45:28;14.25;10.75;9.50
76784;PMS7003;66893;44.316;0.092;2023-04-06T07:47:53;13.50;13.50;9.50
76784;PMS7003;66893;44.316;0.092;2023-04-06T07:50:19;19.75;16.75;12.50
76784;PMS7003;66893;44.316;0.092;2023-04-06T07:52:45;38.50;31.50;23.50
76784;PMS7003;66893;44.316;0.092;2023-04-06T07:55:10;30.75;27.50;18.50
76784;PMS7003;66893;44.316;0.092;2023-04-06T07:57:36;44.25;33.00;22.25
76784;PMS7003;66893;44.316;0.092;2023-04-06T08:00:02;31.25;28.00;20.00
76784;PMS7003;66893;44.316;0.092;2023-04-06T08:02:29;35.50;29.00;22.25
76784;PMS7003;66893;44.316;0.092;2023-04-06T08:04:54;38.25;33.00;21.25
76784;PMS7003;66893;44.316;0.092;2023-04-06T08:07:20;38.75;32.25;23.50
76784;PMS7003;66893;44.316;0.092;2023-04-06T08:09:45;29.75;27.50;19.75
76784;PMS7003;66893;44.316;0.092;2023-04-06T08:12:11;28.50;27.00;17.75
76784;PMS7003;66893;44.316;0.092;2023-04-06T08:14:36;33.25;30.00;20.75
76784;PMS7003;66893;44.316;0.092;2023-04-06T08:17:02;31.25;27.75;19.25
76784;PMS7003;66893;44.316;0.092;2023-04-06T08:19:27;26.00;25.25;18.25
76784;PMS7003;66893;44.316;0.092;2023-04-06T08:21:53;31.50;26.00;18.50
76784;PMS7003;66893;44.316;0.092;2023-04-06T08:24:18;33.25;26.00;17.75
76784;PMS7003;66893;44.316;0.092;2023-04-06T08:26:44;29.75;26.75;19.00
76784;PMS7003;66893;44.316;0.092;2023-04-06T08:29:09;30.00;27.75;18.75
76784;PMS7003;66893;44.316;0.092;2023-04-06T08:31:36;30.75;26.25;18.50
76784;PMS7003;66893;44.316;0.092;2023-04-06T08:34:02;25.75;23.75;17.25
76784;PMS7003;66893;44.316;0.092;2023-04-06T08:36:29;28.50;25.75;18.00
76784;PMS7003;66893;44.316;0.092;2023-04-06T08:38:55;28.25;25.25;18.25
76784;PMS7003;66893;44.316;0.092;2023-04-06T08:41:20;29.75;23.00;15.75
76784;PMS7003;66893;44.316;0.092;2023-04-06T08:43:47;25.25;24.25;17.75
76784;PMS7003;66893;44.316;0.092;2023-04-06T08:46:13;29.25;27.25;19.25
76784;PMS7003;66893;44.316;0.092;2023-04-06T08:48:40;30.25;27.25;19.75
76784;PMS7003;66893;44.316;0.092;2023-04-06T08:51:06;27.50;26.00;17.00
76784;PMS7003;66893;44.316;0.092;2023-04-06T08:53:33;30.25;26.75;18.75
76784;PMS7003;66893;44.316;0.092;2023-04-06T08:55:59;24.75;24.50;19.75
76784;PMS7003;66893;44.316;0.092;2023-04-06T08:58:26;33.75;24.25;17.75
76784;PMS7003;66893;44.316;0.092;2023-04-06T09:00:54;31.00;27.50;17.50
76784;PMS7003;66893;44.316;0.092;2023-04-06T09:03:20;23.75;22.75;16.25
76784;PMS7003;66893;44.316;0.092;2023-04-06T09:05:46;29.25;24.00;15.50
76784;PMS7003;66893;44.316;0.092;2023-04-06T09:08:12;24.25;20.75;15.75
76784;PMS7003;66893;44.316;0.092;2023-04-06T09:10:40;22.25;18.25;12.25
76784;PMS7003;66893;44.316;0.092;2023-04-06T09:13:06;21.50;19.25;13.75
76784;PMS7003;66893;44.316;0.092;2023-04-06T09:15:33;18.50;16.25;12.00
76784;PMS7003;66893;44.316;0.092;2023-04-06T09:17:59;15.50;15.00;11.50
76784;PMS7003;66893;44.316;0.092;2023-04-06T09:20:25;14.25;12.50;8.00
76784;PMS7003;66893;44.316;0.092;2023-04-06T09:22:53;11.25;10.75;8.75
76784;PMS7003;66893;44.316;0.092;2023-04-06T09:25:23;10.50;8.75;7.25
76784;PMS7003;66893;44.316;0.092;2023-04-06T09:28:01;7.25;7.25;5.75
76784;PMS7003;66893;44.316;0.092;2023-04-06T09:30:28;8.75;8.00;6.00
76784;PMS7003;66893;44.316;0.092;2023-04-06T09:32:55;8.50;8.50;7.50
76784;PMS7003;66893;44.316;0.092;2023-04-06T09:35:22;8.00;5.75;5.25
76784;PMS7003;66893;44.316;0.092;2023-04-06T09:37:49;5.50;4.00;3.25
76784;PMS7003;66893;44.316;0.092;2023-04-06T09:40:16;7.75;7.75;5.75
76784;PMS7003;66893;44.316;0.092;2023-04-06T09:42:47;5.25;5.00;4.00
76784;PMS7003;66893;44.316;0.092;2023-04-06T09:45:15;7.50;6.25;5.50
76784;PMS7003;66893;44.316;0.092;2023-04-06T09:47:42;6.50;6.50;5.00
76784;PMS7003;66893;44.316;0.092;2023-04-06T09:50:10;7.50;5.50;4.50
76784;PMS7003;66893;44.316;0.092;2023-04-06T09:52:39;5.50;4.75;4.25
76784;PMS7003;66893;44.316;0.092;2023-04-06T09:55:06;6.50;5.50;4.50
76784;PMS7003;66893;44.316;0.092;2023-04-06T09:57:37;4.75;4.25;3.25
76784;PMS7003;66893;44.316;0.092;2023-04-06T10:00:07;6.25;6.25;5.00
76784;PMS7003;66893;44.316;0.092;2023-04-06T10:05:09;8.00;4.00;3.00
76784;PMS7003;66893;44.316;0.092;2023-04-06T10:07:42;4.75;4.75;4.00
76784;PMS7003;66893;44.316;0.092;2023-04-06T10:10:09;5.75;4.00;3.00
76784;PMS7003;66893;44.316;0.092;2023-04-06T10:12:37;5.00;4.00;4.00
76784;PMS7003;66893;44.316;0.092;2023-04-06T10:15:04;7.25;4.00;3.75
76784;PMS7003;66893;44.316;0.092;2023-04-06T10:17:30;4.50;4.50;3.75
76784;PMS7003;66893;44.316;0.092;2023-04-06T10:20:01;3.00;3.00;2.25
76784;PMS7003;66893;44.316;0.092;2023-04-06T10:22:49;3.25;3.25;2.75
76784;PMS7003;66893;44.316;0.092;2023-04-06T10:25:28;3.50;3.50;3.00
76784;PMS7003;66893;44.316;0.092;2023-04-06T10:30:26;4.75;4.25;4.00
76784;PMS7003;66893;44.316;0.092;2023-04-06T10:32:52;6.75;4.75;4.00
76784;PMS7003;66893;44.316;0.092;2023-04-06T10:35:18;4.50;3.75;3.00
76784;PMS7003;66893;44.316;0.092;2023-04-06T10:37:52;3.00;3.00;3.00
76784;PMS7003;66893;44.316;0.092;2023-04-06T10:40:25;4.00;2.50;2.00
76784;PMS7003;66893;44.316;0.092;2023-04-06T10:42:55;2.75;2.75;2.25
76784;PMS7003;66893;44.316;0.092;2023-04-06T10:45:31;6.00;3.25;3.00
76784;PMS7003;66893;44.316;0.092;2023-04-06T10:47:57;3.00;2.00;1.50
76784;PMS7003;66893;44.316;0.092;2023-04-06T10:50:23;4.25;4.25;4.00
76784;PMS7003;66893;44.316;0.092;2023-04-06T10:53:01;3.00;3.00;2.25
76784;PMS7003;66893;44.316;0.092;2023-04-06T10:55:28;4.00;3.00;2.00
76784;PMS7003;66893;44.316;0.092;2023-04-06T10:57:54;35.00;19.75;8.50
76784;PMS7003;66893;44.316;0.092;2023-04-06T11:00:19;8.00;5.75;4.50
76784;PMS7003;66893;44.316;0.092;2023-04-06T11:02:45;7.25;4.25;3.00
76784;PMS7003;66893;44.316;0.092;2023-04-06T11:05:12;2.00;2.00;2.00
76784;PMS7003;66893;44.316;0.092;2023-04-06T11:07:40;5.00;4.00;3.00
76784;PMS7003;66893;44.316;0.092;2023-04-06T11:10:06;8.25;3.50;3.00
76784;PMS7003;66893;44.316;0.092;2023-04-06T11:12:33;4.75;3.00;2.25
76784;PMS7003;66893;44.316;0.092;2023-04-06T11:15:00;6.00;3.00;2.50
76784;PMS7003;66893;44.316;0.092;2023-04-06T11:17:31;4.00;4.00;3.00
76784;PMS7003;66893;44.316;0.092;2023-04-06T11:19:58;3.00;3.00;2.00
76784;PMS7003;66893;44.316;0.092;2023-04-06T11:22:24;7.50;2.00;2.00
76784;PMS7003;66893;44.316;0.092;2023-04-06T11:24:50;3.75;3.00;2.25
76784;PMS7003;66893;44.316;0.092;2023-04-06T11:27:17;3.75;3.75;2.00
76784;PMS7003;66893;44.316;0.092;2023-04-06T11:29:43;2.25;2.00;2.00
76784;PMS7003;66893;44.316;0.092;2023-04-06T11:32:19;2.00;2.00;2.00
76784;PMS7003;66893;44.316;0.092;2023-04-06T11:34:46;2.00;1.00;1.00
76784;PMS7003;66893;44.316;0.092;2023-04-06T11:37:13;3.00;3.00;3.00
76784;PMS7003;66893;44.316;0.092;2023-04-06T11:39:39;2.00;1.00;1.00
76784;PMS7003;66893;44.316;0.092;2023-04-06T11:42:06;3.50;3.50;2.75
76784;PMS7003;66893;44.316;0.092;2023-04-06T11:44:32;3.00;2.00;2.00
76784;PMS7003;66893;44.316;0.092;2023-04-06T11:47:00;2.25;2.25;2.00
76784;PMS7003;66893;44.316;0.092;2023-04-06T11:49:27;3.25;3.00;2.00
76784;PMS7003;66893;44.316;0.092;2023-04-06T11:51:54;2.00;2.00;1.00
76784;PMS7003;66893;44.316;0.092;2023-04-06T11:54:33;4.00;2.00;2.00
76784;PMS7003;66893;44.316;0.092;2023-04-06T11:56:59;4.00;2.00;2.00
76784;PMS7003;66893;44.316;0.092;2023-04-06T11:59:26;2.00;2.00;2.00
76784;PMS7003;66893;44.316;0.092;2023-04-06T12:01:52;2.00;2.00;1.25
76784;PMS7003;66893;44.316;0.092;2023-04-06T12:04:18;3.00;3.00;2.00
76784;PMS7003;66893;44.316;0.092;2023-04-06T12:06:44;2.75;2.75;2.25
76784;PMS7003;66893;44.316;0.092;2023-04-06T12:09:09;3.00;2.75;2.00
76784;PMS7003;66893;44.316;0.092;2023-04-06T12:11:35;2.00;2.00;2.00
76784;PMS7003;66893;44.316;0.092;2023-04-06T12:14:00;1.50;1.50;1.25
76784;PMS7003;66893;44.316;0.092;2023-04-06T12:16:29;2.25;2.25;2.25
76784;PMS7003;66893;44.316;0.092;2023-04-06T12:18:55;2.25;2.25;2.00
76784;PMS7003;66893;44.316;0.092;2023-04-06T12:21:21;2.50;2.00;2.00
76784;PMS7003;66893;44.316;0.092;2023-04-06T12:23:46;2.00;2.00;1.00
76784;PMS7003;66893;44.316;0.092;2023-04-06T12:26:12;2.00;2.00;1.00
76784;PMS7003;66893;44.316;0.092;2023-04-06T12:28:37;2.00;2.00;2.00
76784;PMS7003;66893;44.316;0.092;2023-04-06T12:31:03;3.00;3.00;2.00
76784;PMS7003;66893;44.316;0.092;2023-04-06T12:33:28;3.00;2.50;1.00
76784;PMS7003;66893;44.316;0.092;2023-04-06T12:35:53;2.00;2.00;2.00
76784;PMS7003;66893;44.316;0.092;2023-04-06T12:38:19;1.00;1.00;1.00
76784;PMS7003;66893;44.316;0.092;2023-04-06T12:40:45;1.25;1.25;1.25
76784;PMS7003;66893;44.316;0.092;2023-04-06T12:43:11;2.25;2.00;1.75
76784;PMS7003;66893;44.316;0.092;2023-04-06T12:45:38;2.00;2.00;1.50
76784;PMS7003;66893;44.316;0.092;2023-04-06T12:48:04;2.75;2.00;2.00
76784;PMS7003;66893;44.316;0.092;2023-04-06T12:50:30;3.75;3.00;2.25
76784;PMS7003;66893;44.316;0.092;2023-04-06T12:52:55;1.75;1.75;1.00
76784;PMS7003;66893;44.316;0.092;2023-04-06T12:55:21;3.00;3.00;2.00
76784;PMS7003;66893;44.316;0.092;2023-04-06T12:57:47;2.00;2.00;2.00
76784;PMS7003;66893;44.316;0.092;2023-04-06T13:00:12;2.50;2.00;2.00
76784;PMS7003;66893;44.316;0.092;2023-04-06T13:02:39;2.00;2.00;1.75
76784;PMS7003;66893;44.316;0.092;2023-04-06T13:05:05;3.00;1.00;1.00
76784;PMS7003;66893;44.316;0.092;2023-04-06T13:07:31;1.00;1.00;1.00
76784;PMS7003;66893;44.316;0.092;2023-04-06T13:09:56;1.00;1.00;1.00
76784;PMS7003;66893;44.316;0.092;2023-04-06T13:12:22;2.00;2.00;2.00
76784;PMS7003;66893;44.316;0.092;2023-04-06T13:14:47;1.25;1.25;1.00
76784;PMS7003;66893;44.316;0.092;2023-04-06T13:17:16;2.00;2.00;2.00
76784;PMS7003;66893;44.316;0.092;2023-04-06T13:19:42;3.00;1.00;0.25
76784;PMS7003;66893;44.316;0.092;2023-04-06T13:22:08;2.00;1.75;1.00
76784;PMS7003;66893;44.316;0.092;2023-04-06T13:24:33;1.25;1.25;1.00
76784;PMS7003;66893;44.316;0.092;2023-04-06T13:26:59;0.00;0.00;0.00
76784;PMS7003;66893;44.316;0.092;2023-04-06T13:29:25;1.25;1.25;1.00
76784;PMS7003;66893;44.316;0.092;2023-04-06T13:31:52;2.00;2.00;2.00
76784;PMS7003;66893;44.316;0.092;2023-04-06T13:34:18;1.00;1.00;1.00
76784;PMS7003;66893;44.316;0.092;2023-04-06T13:36:43;2.25;1.00;1.00
76784;PMS7003;66893;44.316;0.092;2023-04-06T13:39:09;2.00;2.00;1.25
76784;PMS7003;66893;44.316;0.092;2023-04-06T13:41:34;1.00;1.00;1.00
76784;PMS7003;66893;44.316;0.092;2023-04-06T13:44:00;3.00;1.25;1.00
76784;PMS7003;66893;44.316;0.092;2023-04-06T13:46:25;1.50;1.00;1.00
76784;PMS7003;66893;44.316;0.092;2023-04-06T13:48:52;2.25;2.25;2.00
76784;PMS7003;66893;44.316;0.092;2023-04-06T13:51:18;1.75;1.75;1.00
76784;PMS7003;66893;44.316;0.092;2023-04-06T13:53:43;1.75;1.00;1.00
76784;PMS7003;66893;44.316;0.092;2023-04-06T13:56:09;1.25;1.25;1.00
76784;PMS7003;66893;44.316;0.092;2023-04-06T13:58:35;0.75;0.75;0.25
76784;PMS7003;66893;44.316;0.092;2023-04-06T14:01:10;1.00;1.00;1.00
76784;PMS7003;66893;44.316;0.092;2023-04-06T14:03:35;1.00;1.00;1.00
76784;PMS7003;66893;44.316;0.092;2023-04-06T14:06:09;2.25;1.75;1.00
76784;PMS7003;66893;44.316;0.092;2023-04-06T14:08:37;2.00;1.50;1.00
76784;PMS7003;66893;44.316;0.092;2023-04-06T14:11:03;1.25;1.25;1.25
76784;PMS7003;66893;44.316;0.092;2023-04-06T14:13:28;1.00;1.00;1.00
76784;PMS7003;66893;44.316;0.092;2023-04-06T14:15:54;2.00;2.00;2.00
76784;PMS7003;66893;44.316;0.092;2023-04-06T14:18:20;1.00;1.00;1.00